SCIE/CCP METAR and TAF weather

Enter ICAO airport designator
Station Type Date Time Source
SCIE METAR 2021/09/25 12:00 UTC NOAA

SCIE 251200Z 02010KT 9999 BKN035 OVC045 12/09 Q1019


Station Type Date Time Source
SCIE Decoded METAR 2021/09/25 12:00 UTC NOAA

Concepcion, Chile (SCIE) 36-46S 073-03W
Sep 25, 2021 - 08:00 AM EDT / 2021.09.25 1200 UTC
Wind: from the NNE (020 degrees) at 12 MPH (10 KT):0
Visibility: greater than 7 mile(s):0
Sky conditions: overcast
Temperature: 53 F (12 C)
Dew Point: 48 F (9 C)
Relative Humidity: 81%
Pressure (altimeter): 30.09 in. Hg (1019 hPa)
ob: SCIE 251200Z 02010KT 9999 BKN035 OVC045 12/09 Q1019
cycle: 12

Station Type Date Time Source
SCIE TAF 2021/09/25 12:03 UTC NOAA

TAF TAF SCIE 251018Z 2512/2612 28004KT 9999 SCT010 BKN035 TX14/2518Z TN09/2610Z
BECMG 2514/2516 SCT010 BKN025
TEMPO 2515/2522 6000 -RA SCT009 OVC015
BECMG 2604/2606 16004KT
BECMG 2606/2608 CAVOK

Example: see airport list